createdAt,value
2022-09-28T00:03:21.063Z,8.39
2022-09-28T00:09:21.729Z,8.34
2022-09-28T00:14:24.770Z,8.28
2022-09-28T00:19:37.225Z,8.22
2022-09-28T00:24:53.829Z,8.23
2022-09-28T00:31:37.565Z,8.27
2022-09-28T00:38:00.453Z,8.32
2022-09-28T00:43:28.316Z,8.37
2022-09-28T00:49:50.270Z,8.39
2022-09-28T00:55:03.932Z,8.42
2022-09-28T01:01:05.198Z,8.42
2022-09-28T01:07:55.446Z,8.43
2022-09-28T01:14:36.156Z,8.42
2022-09-28T01:20:57.569Z,8.30
2022-09-28T01:27:09.494Z,8.15
2022-09-28T01:34:02.472Z,8.09
2022-09-28T01:40:28.846Z,8.04
2022-09-28T01:47:41.767Z,8.01
2022-09-28T01:54:50.983Z,7.98
2022-09-28T02:01:54.420Z,7.91
2022-09-28T02:07:53.276Z,7.74
2022-09-28T02:14:37.144Z,7.54
2022-09-28T02:21:01.695Z,7.36
2022-09-28T02:27:34.127Z,7.22
2022-09-28T02:34:05.509Z,7.08
2022-09-28T02:40:23.506Z,7.07
2022-09-28T02:46:29.695Z,7.11
2022-09-28T02:53:09.661Z,7.12
2022-09-28T02:59:58.524Z,7.12
2022-09-28T03:06:18.983Z,7.09
2022-09-28T03:12:27.340Z,7.07
2022-09-28T03:18:22.760Z,7.07
2022-09-28T03:24:04.812Z,7.00
2022-09-28T03:29:59.327Z,6.90
2022-09-28T03:36:12.805Z,6.75
2022-09-28T03:42:59.159Z,6.62
2022-09-28T03:48:50.622Z,6.55
2022-09-28T03:54:49.383Z,6.54
2022-09-28T03:59:54.310Z,6.57
2022-09-28T04:05:17.070Z,6.61
2022-09-28T04:11:53.127Z,6.66
2022-09-28T04:17:49.170Z,6.72
2022-09-28T04:24:10.312Z,6.73
2022-09-28T04:29:54.300Z,6.71
2022-09-28T04:36:06.676Z,6.69
2022-09-28T04:42:39.664Z,6.65
2022-09-28T04:48:33.606Z,6.62
2022-09-28T04:54:48.288Z,6.59
2022-09-28T05:00:36.138Z,6.60
2022-09-28T05:06:24.772Z,6.66
2022-09-28T05:12:11.695Z,6.66
2022-09-28T05:18:25.839Z,6.68
2022-09-28T05:23:58.518Z,6.80
2022-09-28T05:30:26.167Z,6.98
2022-09-28T05:36:49.077Z,7.19
2022-09-28T05:42:22.768Z,7.35
2022-09-28T05:48:02.177Z,7.48
2022-09-28T05:54:58.597Z,7.66
2022-09-28T06:01:25.576Z,7.82
2022-09-28T06:08:07.250Z,7.85
2022-09-28T06:14:41.226Z,7.91
2022-09-28T06:20:45.876Z,7.99
2022-09-28T06:26:18.013Z,8.08
2022-09-28T06:31:47.038Z,8.20
2022-09-28T06:37:58.650Z,8.34
2022-09-28T06:43:21.034Z,8.48
2022-09-28T06:49:43.627Z,8.62
2022-09-28T06:55:54.229Z,8.72
2022-09-28T07:01:56.797Z,8.73
2022-09-28T07:08:50.130Z,8.70
2022-09-28T07:15:14.277Z,8.82
2022-09-28T07:20:44.771Z,9.02
2022-09-28T07:26:18.946Z,9.28
2022-09-28T07:31:53.136Z,9.57
2022-09-28T07:38:44.847Z,9.89
2022-09-28T07:45:29.744Z,10.09
2022-09-28T07:52:13.126Z,10.19
2022-09-28T07:58:16.174Z,10.54
2022-09-28T08:04:09.760Z,10.79
2022-09-28T08:09:39.299Z,10.97
2022-09-28T08:16:20.152Z,11.11
2022-09-28T08:22:12.031Z,11.22
2022-09-28T08:27:28.532Z,11.33
2022-09-28T08:33:18.623Z,11.33
2022-09-28T08:38:59.394Z,11.40
2022-09-28T08:45:35.916Z,11.60
2022-09-28T08:52:32.442Z,11.81
2022-09-28T08:58:42.845Z,11.94
2022-09-28T09:04:17.514Z,11.94
2022-09-28T09:10:03.979Z,11.75
2022-09-28T09:16:14.667Z,11.76
2022-09-28T09:23:00.209Z,11.92
2022-09-28T09:29:18.714Z,12.46
2022-09-28T09:35:55.121Z,13.11
2022-09-28T09:41:51.581Z,13.30
2022-09-28T09:48:09.856Z,13.52
2022-09-28T09:54:36.960Z,13.78
2022-09-28T10:00:59.171Z,13.95
2022-09-28T10:07:48.535Z,14.06
2022-09-28T10:14:01.157Z,14.16
2022-09-28T10:21:13.521Z,14.04
2022-09-28T10:27:14.593Z,14.37
2022-09-28T10:33:14.470Z,14.57
2022-09-28T10:39:24.517Z,14.62
2022-09-28T10:45:43.698Z,14.49
2022-09-28T10:52:14.783Z,14.38
2022-09-28T10:57:39.830Z,14.55
2022-09-28T11:02:44.153Z,14.90
2022-09-28T11:08:19.310Z,15.02
2022-09-28T11:13:35.725Z,15.11
2022-09-28T11:18:41.141Z,15.20
2022-09-28T11:24:35.956Z,15.25
2022-09-28T11:29:46.947Z,15.28
2022-09-28T11:35:16.422Z,15.60
2022-09-28T11:41:09.226Z,15.71
2022-09-28T11:47:00.513Z,15.92
2022-09-28T11:52:14.642Z,16.12
2022-09-28T11:57:36.875Z,16.07
2022-09-28T12:03:33.349Z,15.73
2022-09-28T12:08:46.130Z,15.66
2022-09-28T12:14:46.721Z,15.54
2022-09-28T12:20:27.568Z,15.54
2022-09-28T12:25:39.537Z,15.63
2022-09-28T12:30:47.612Z,15.65
2022-09-28T12:36:09.160Z,15.76
2022-09-28T12:42:07.407Z,16.04
2022-09-28T12:47:28.346Z,16.30
2022-09-28T12:52:53.696Z,16.47
2022-09-28T12:58:36.485Z,16.37
2022-09-28T13:04:29.798Z,16.21
2022-09-28T13:10:35.014Z,16.01
2022-09-28T13:16:09.647Z,15.85
2022-09-28T13:22:04.076Z,15.62
2022-09-28T13:27:19.531Z,15.39
2022-09-28T13:32:46.065Z,15.19
2022-09-28T13:38:49.524Z,15.02
2022-09-28T13:43:58.623Z,14.87
2022-09-28T13:50:00.021Z,14.75
2022-09-28T13:55:39.335Z,14.63
2022-09-28T14:01:09.088Z,14.55
2022-09-28T14:07:33.653Z,14.48
2022-09-28T14:13:17.067Z,14.33
2022-09-28T14:18:55.191Z,14.27
2022-09-28T14:24:54.315Z,14.31
2022-09-28T14:30:48.373Z,14.37
2022-09-28T14:35:58.350Z,14.34
2022-09-28T14:41:57.559Z,14.18
2022-09-28T14:47:33.422Z,13.95
2022-09-28T14:53:20.722Z,13.91
2022-09-28T14:58:27.598Z,13.91
2022-09-28T15:03:36.452Z,13.90
2022-09-28T15:09:36.660Z,13.92
2022-09-28T15:15:37.251Z,13.94
2022-09-28T15:20:48.082Z,14.00
2022-09-28T15:26:03.980Z,13.94
2022-09-28T15:31:41.666Z,13.82
2022-09-28T15:37:45.973Z,13.57
2022-09-28T15:43:41.509Z,13.24
2022-09-28T15:48:59.665Z,12.97
2022-09-28T15:54:32.697Z,12.79
2022-09-28T15:59:59.611Z,12.65
2022-09-28T16:06:17.653Z,12.54
2022-09-28T16:11:38.907Z,12.47
2022-09-28T16:16:55.193Z,12.44
2022-09-28T16:22:11.159Z,12.39
2022-09-28T16:28:02.573Z,12.33
2022-09-28T16:34:19.736Z,12.29
2022-09-28T16:39:43.229Z,12.27
2022-09-28T16:45:21.659Z,12.23
2022-09-28T16:50:26.430Z,12.19
2022-09-28T16:55:53.368Z,12.17
2022-09-28T17:01:20.897Z,12.20
2022-09-28T17:06:36.701Z,12.24
2022-09-28T17:12:02.602Z,12.27
2022-09-28T17:17:10.579Z,12.28
2022-09-28T17:23:24.756Z,12.29
2022-09-28T17:29:01.570Z,12.23
2022-09-28T17:34:55.966Z,12.12
2022-09-28T17:40:51.159Z,12.04
2022-09-28T17:46:47.652Z,11.95
2022-09-28T17:52:32.254Z,11.86
2022-09-28T17:58:42.509Z,11.78
2022-09-28T18:05:11.473Z,11.66
2022-09-28T18:11:47.037Z,11.60
2022-09-28T18:18:19.764Z,11.59
2022-09-28T18:24:15.509Z,11.56
2022-09-28T18:30:21.163Z,11.43
2022-09-28T18:36:53.501Z,11.29
2022-09-28T18:42:32.276Z,11.14
2022-09-28T18:47:59.777Z,11.03
2022-09-28T18:53:34.217Z,10.94
2022-09-28T18:58:58.501Z,10.88
2022-09-28T19:04:42.579Z,10.84
2022-09-28T19:10:22.971Z,10.84
2022-09-28T19:16:28.759Z,10.81
2022-09-28T19:21:47.259Z,10.76
2022-09-28T19:27:11.189Z,10.72
2022-09-28T19:32:42.955Z,10.71
2022-09-28T19:37:46.765Z,10.73
2022-09-28T19:42:56.547Z,10.72
2022-09-28T19:47:59.559Z,10.72
2022-09-28T19:53:30.362Z,10.73
2022-09-28T19:58:52.644Z,10.73
2022-09-28T20:04:16.508Z,10.71
2022-09-28T20:09:42.335Z,10.66
2022-09-28T20:14:45.176Z,10.58
2022-09-28T20:19:51.825Z,10.53
2022-09-28T20:25:24.806Z,10.49
2022-09-28T20:30:27.308Z,10.43
2022-09-28T20:35:57.677Z,10.40
2022-09-28T20:41:36.861Z,10.35
2022-09-28T20:47:18.628Z,10.32
2022-09-28T20:53:00.196Z,10.29
2022-09-28T20:58:54.309Z,10.28
2022-09-28T21:04:37.168Z,10.27
2022-09-28T21:11:10.682Z,10.26
2022-09-28T21:16:47.990Z,10.27
2022-09-28T21:22:10.412Z,10.26
2022-09-28T21:27:46.099Z,10.23
2022-09-28T21:33:28.936Z,10.20
2022-09-28T21:39:11.667Z,10.17
2022-09-28T21:45:25.017Z,10.13
2022-09-28T21:50:28.383Z,10.14
2022-09-28T21:56:31.601Z,10.15
2022-09-28T22:01:44.351Z,10.13
2022-09-28T22:07:32.297Z,10.09
2022-09-28T22:13:15.020Z,10.07
2022-09-28T22:18:54.349Z,10.03
2022-09-28T22:26:10.142Z,10.01
2022-09-28T22:32:26.614Z,10.01
2022-09-28T22:38:58.835Z,10.01
2022-09-28T22:45:22.022Z,9.98
2022-09-28T22:52:25.349Z,9.92
2022-09-28T22:58:26.792Z,9.89
2022-09-28T23:04:50.050Z,9.85
2022-09-28T23:11:43.477Z,9.80
2022-09-28T23:18:21.630Z,9.74
2022-09-28T23:24:30.859Z,9.71
2022-09-28T23:31:12.017Z,9.69
2022-09-28T23:37:48.409Z,9.62
2022-09-28T23:43:46.978Z,9.58
2022-09-28T23:49:53.169Z,9.56
2022-09-28T23:55:26.019Z,9.51
